sensor_id;sensor_type;location;lat;lon;timestamp;pressure;altitude;pressure_sealevel;temperature;humidity
84134;BME280;74235;48.688;9.708;2024-03-25T00:00:45;96833.28;;;21.27;39.49
84134;BME280;74235;48.688;9.708;2024-03-25T00:03:13;96832.53;;;21.26;39.73
84134;BME280;74235;48.688;9.708;2024-03-25T00:05:40;96837.91;;;21.26;38.30
84134;BME280;74235;48.688;9.708;2024-03-25T00:08:07;96839.00;;;21.25;39.88
84134;BME280;74235;48.688;9.708;2024-03-25T00:10:34;96845.22;;;21.26;38.70
84134;BME280;74235;48.688;9.708;2024-03-25T00:13:00;96842.81;;;21.24;38.14
84134;BME280;74235;48.688;9.708;2024-03-25T00:15:27;96842.03;;;21.24;38.22
84134;BME280;74235;48.688;9.708;2024-03-25T00:17:53;96844.72;;;21.24;40.18
84134;BME280;74235;48.688;9.708;2024-03-25T00:20:21;96843.13;;;21.23;39.65
84134;BME280;74235;48.688;9.708;2024-03-25T00:22:48;96843.41;;;21.21;38.43
84134;BME280;74235;48.688;9.708;2024-03-25T00:25:15;96843.13;;;21.23;39.55
84134;BME280;74235;48.688;9.708;2024-03-25T00:27:43;96848.03;;;21.21;39.73
84134;BME280;74235;48.688;9.708;2024-03-25T00:30:11;96851.53;;;21.21;39.77
84134;BME280;74235;48.688;9.708;2024-03-25T00:32:38;96847.53;;;21.19;38.32
84134;BME280;74235;48.688;9.708;2024-03-25T00:35:05;96847.53;;;21.19;38.31
84134;BME280;74235;48.688;9.708;2024-03-25T00:37:34;96844.53;;;21.20;39.72
84134;BME280;74235;48.688;9.708;2024-03-25T00:40:01;96848.34;;;21.19;38.64
84134;BME280;74235;48.688;9.708;2024-03-25T00:42:28;96835.94;;;21.18;38.95
84134;BME280;74235;48.688;9.708;2024-03-25T00:44:54;96835.13;;;21.18;39.76
84134;BME280;74235;48.688;9.708;2024-03-25T00:47:21;96833.53;;;21.17;39.67
84134;BME280;74235;48.688;9.708;2024-03-25T00:49:48;96832.44;;;21.18;39.23
84134;BME280;74235;48.688;9.708;2024-03-25T00:52:15;96830.84;;;21.17;38.97
84134;BME280;74235;48.688;9.708;2024-03-25T00:54:43;96832.75;;;21.16;40.09
84134;BME280;74235;48.688;9.708;2024-03-25T00:57:09;96829.22;;;21.16;39.80
84134;BME280;74235;48.688;9.708;2024-03-25T00:59:38;96819.53;;;21.15;39.32
84134;BME280;74235;48.688;9.708;2024-03-25T01:02:05;96821.44;;;21.14;40.12
84134;BME280;74235;48.688;9.708;2024-03-25T01:04:32;96821.44;;;21.14;38.63
84134;BME280;74235;48.688;9.708;2024-03-25T01:06:59;96820.66;;;21.14;38.89
84134;BME280;74235;48.688;9.708;2024-03-25T01:09:26;96823.34;;;21.14;39.00
84134;BME280;74235;48.688;9.708;2024-03-25T01:11:54;96814.44;;;21.13;38.28
84134;BME280;74235;48.688;9.708;2024-03-25T01:14:20;96822.84;;;21.12;39.01
84134;BME280;74235;48.688;9.708;2024-03-25T01:16:47;96819.38;;;21.11;40.16
84134;BME280;74235;48.688;9.708;2024-03-25T01:19:13;96821.25;;;21.11;39.78
84134;BME280;74235;48.688;9.708;2024-03-25T01:21:40;96821.25;;;21.11;40.24
84134;BME280;74235;48.688;9.708;2024-03-25T01:24:07;96814.75;;;21.12;38.25
84134;BME280;74235;48.688;9.708;2024-03-25T01:26:33;96815.84;;;21.11;38.37
84134;BME280;74235;48.688;9.708;2024-03-25T01:29:01;96823.94;;;21.11;38.87
84134;BME280;74235;48.688;9.708;2024-03-25T01:31:28;96822.38;;;21.10;38.66
84134;BME280;74235;48.688;9.708;2024-03-25T01:33:54;96817.25;;;21.08;38.58
84134;BME280;74235;48.688;9.708;2024-03-25T01:36:21;96809.94;;;21.09;39.91
84134;BME280;74235;48.688;9.708;2024-03-25T01:38:48;96811.06;;;21.08;40.17
84134;BME280;74235;48.688;9.708;2024-03-25T01:41:20;96801.97;;;21.04;38.94
84134;BME280;74235;48.688;9.708;2024-03-25T01:43:47;96815.66;;;21.07;39.10
84134;BME280;74235;48.688;9.708;2024-03-25T01:46:15;96804.06;;;21.07;39.96
84134;BME280;74235;48.688;9.708;2024-03-25T01:48:43;96809.47;;;21.07;38.72
84134;BME280;74235;48.688;9.708;2024-03-25T01:51:10;96801.38;;;21.07;38.40
84134;BME280;74235;48.688;9.708;2024-03-25T01:53:38;96805.94;;;21.06;38.70
84134;BME280;74235;48.688;9.708;2024-03-25T01:56:05;96809.75;;;21.05;39.92
84134;BME280;74235;48.688;9.708;2024-03-25T01:58:32;96809.28;;;21.03;38.50
84134;BME280;74235;48.688;9.708;2024-03-25T02:00:59;96806.25;;;21.05;38.75
84134;BME280;74235;48.688;9.708;2024-03-25T02:03:29;96815.16;;;21.05;38.76
84134;BME280;74235;48.688;9.708;2024-03-25T02:05:58;96810.88;;;21.04;39.88
84134;BME280;74235;48.688;9.708;2024-03-25T02:08:27;96808.47;;;21.03;38.83
84134;BME280;74235;48.688;9.708;2024-03-25T02:10:54;96808.47;;;21.03;39.80
84134;BME280;74235;48.688;9.708;2024-03-25T02:13:21;96811.19;;;21.03;39.62
84134;BME280;74235;48.688;9.708;2024-03-25T02:15:48;96810.38;;;21.02;38.62
84134;BME280;74235;48.688;9.708;2024-03-25T02:18:17;96806.06;;;21.01;38.63
84134;BME280;74235;48.688;9.708;2024-03-25T02:20:46;96808.47;;;21.03;39.11
84134;BME280;74235;48.688;9.708;2024-03-25T02:23:13;96804.50;;;21.00;38.63
84134;BME280;74235;48.688;9.708;2024-03-25T02:25:42;96810.66;;;21.01;39.04
84134;BME280;74235;48.688;9.708;2024-03-25T02:28:10;96807.50;;;20.99;38.89
84134;BME280;74235;48.688;9.708;2024-03-25T02:30:36;96812.88;;;20.99;40.35
84134;BME280;74235;48.688;9.708;2024-03-25T02:33:03;96810.19;;;20.99;38.31
84134;BME280;74235;48.688;9.708;2024-03-25T02:35:30;96808.25;;;20.99;38.42
84134;BME280;74235;48.688;9.708;2024-03-25T02:37:57;96806.38;;;21.00;39.16
84134;BME280;74235;48.688;9.708;2024-03-25T02:40:24;96810.19;;;20.99;38.59
84134;BME280;74235;48.688;9.708;2024-03-25T02:42:52;96810.19;;;20.99;39.89
84134;BME280;74235;48.688;9.708;2024-03-25T02:45:21;96815.06;;;20.97;39.54
84134;BME280;74235;48.688;9.708;2024-03-25T02:47:48;96814.00;;;20.98;39.72
84134;BME280;74235;48.688;9.708;2024-03-25T02:50:15;96808.59;;;20.98;39.26
84134;BME280;74235;48.688;9.708;2024-03-25T02:52:42;96817.78;;;20.97;39.82
84134;BME280;74235;48.688;9.708;2024-03-25T02:55:08;96804.28;;;20.97;38.41
84134;BME280;74235;48.688;9.708;2024-03-25T02:57:35;96813.50;;;20.96;38.66
84134;BME280;74235;48.688;9.708;2024-03-25T03:00:02;96811.59;;;20.96;38.59
84134;BME280;74235;48.688;9.708;2024-03-25T03:02:30;96806.19;;;20.96;38.90
84134;BME280;74235;48.688;9.708;2024-03-25T03:04:57;96813.50;;;20.96;39.86
84134;BME280;74235;48.688;9.708;2024-03-25T03:07:24;96806.50;;;20.95;39.98
84134;BME280;74235;48.688;9.708;2024-03-25T03:09:50;96807.28;;;20.95;38.68
84134;BME280;74235;48.688;9.708;2024-03-25T03:12:17;96805.69;;;20.94;39.27
84134;BME280;74235;48.688;9.708;2024-03-25T03:14:43;96811.91;;;20.95;38.65
84134;BME280;74235;48.688;9.708;2024-03-25T03:17:10;96817.28;;;20.95;39.53
84134;BME280;74235;48.688;9.708;2024-03-25T03:19:38;96814.59;;;20.95;39.93
84134;BME280;74235;48.688;9.708;2024-03-25T03:22:05;96817.28;;;20.95;39.98
84134;BME280;74235;48.688;9.708;2024-03-25T03:24:31;96811.91;;;20.95;39.94
84134;BME280;74235;48.688;9.708;2024-03-25T03:26:58;96826.47;;;20.94;39.38
84134;BME280;74235;48.688;9.708;2024-03-25T03:29:25;96816.78;;;20.93;38.89
84134;BME280;74235;48.688;9.708;2024-03-25T03:31:51;96816.78;;;20.93;39.55
84134;BME280;74235;48.688;9.708;2024-03-25T03:34:18;96816.00;;;20.92;40.13
84134;BME280;74235;48.688;9.708;2024-03-25T03:36:46;96819.50;;;20.93;39.91
84134;BME280;74235;48.688;9.708;2024-03-25T03:39:13;96810.63;;;20.92;39.07
84134;BME280;74235;48.688;9.708;2024-03-25T03:41:40;96811.38;;;20.93;40.04
84134;BME280;74235;48.688;9.708;2024-03-25T03:44:06;96811.38;;;20.93;39.13
84134;BME280;74235;48.688;9.708;2024-03-25T03:46:33;96810.88;;;20.91;40.14
84134;BME280;74235;48.688;9.708;2024-03-25T03:48:59;96804.38;;;20.92;38.38
84134;BME280;74235;48.688;9.708;2024-03-25T03:51:26;96806.25;;;20.91;38.74
84134;BME280;74235;48.688;9.708;2024-03-25T03:53:54;96802.78;;;20.91;40.21
84134;BME280;74235;48.688;9.708;2024-03-25T03:56:21;96799.81;;;20.92;40.48
84134;BME280;74235;48.688;9.708;2024-03-25T03:58:47;96803.56;;;20.91;40.24
84134;BME280;74235;48.688;9.708;2024-03-25T04:01:15;96815.16;;;20.92;39.30
84134;BME280;74235;48.688;9.708;2024-03-25T04:03:42;96806.56;;;20.90;40.36
84134;BME280;74235;48.688;9.708;2024-03-25T04:06:10;96816.28;;;20.91;40.07
84134;BME280;74235;48.688;9.708;2024-03-25T04:08:37;96815.47;;;20.90;38.51
84134;BME280;74235;48.688;9.708;2024-03-25T04:11:05;96813.59;;;20.91;39.84
84134;BME280;74235;48.688;9.708;2024-03-25T04:13:32;96817.06;;;20.91;39.18
84134;BME280;74235;48.688;9.708;2024-03-25T04:16:03;96809.88;;;20.87;39.70
84134;BME280;74235;48.688;9.708;2024-03-25T04:18:31;96817.06;;;20.91;39.68
84134;BME280;74235;48.688;9.708;2024-03-25T04:20:59;96816.28;;;20.91;40.07
84134;BME280;74235;48.688;9.708;2024-03-25T04:23:25;96813.59;;;20.91;40.02
84134;BME280;74235;48.688;9.708;2024-03-25T04:25:52;96815.16;;;20.92;39.55
84134;BME280;74235;48.688;9.708;2024-03-25T04:28:20;96812.47;;;20.92;39.05
84134;BME280;74235;48.688;9.708;2024-03-25T04:30:52;96813.31;;;20.92;39.27
84134;BME280;74235;48.688;9.708;2024-03-25T04:33:19;96808.19;;;20.91;39.31
84134;BME280;74235;48.688;9.708;2024-03-25T04:35:47;96815.16;;;20.92;38.52
84134;BME280;74235;48.688;9.708;2024-03-25T04:38:16;96810.59;;;21.28;38.97
84134;BME280;74235;48.688;9.708;2024-03-25T04:40:43;96807.41;;;21.70;37.11
84134;BME280;74235;48.688;9.708;2024-03-25T04:43:10;96800.22;;;21.87;37.49
84134;BME280;74235;48.688;9.708;2024-03-25T04:45:38;96808.59;;;22.08;36.33
84134;BME280;74235;48.688;9.708;2024-03-25T04:48:05;96800.53;;;22.16;37.39
84134;BME280;74235;48.688;9.708;2024-03-25T04:50:32;96803.75;;;22.18;36.22
84134;BME280;74235;48.688;9.708;2024-03-25T04:52:59;96808.34;;;22.18;37.29
84134;BME280;74235;48.688;9.708;2024-03-25T04:55:25;96806.13;;;22.20;37.30
84134;BME280;74235;48.688;9.708;2024-03-25T04:57:52;96811.53;;;22.20;36.35
84134;BME280;74235;48.688;9.708;2024-03-25T05:00:19;96806.25;;;22.15;36.83
84134;BME280;74235;48.688;9.708;2024-03-25T05:02:47;96805.59;;;22.09;36.47
84134;BME280;74235;48.688;9.708;2024-03-25T05:05:13;96806.53;;;22.05;37.03
84134;BME280;74235;48.688;9.708;2024-03-25T05:07:40;96809.94;;;22.19;37.33
84134;BME280;74235;48.688;9.708;2024-03-25T05:10:07;96819.22;;;22.35;37.23
84134;BME280;74235;48.688;9.708;2024-03-25T05:12:34;96818.38;;;22.48;35.96
84134;BME280;74235;48.688;9.708;2024-03-25T05:15:01;96829.19;;;22.48;36.37
84134;BME280;74235;48.688;9.708;2024-03-25T05:17:28;96818.66;;;22.46;36.19
84134;BME280;74235;48.688;9.708;2024-03-25T05:19:56;96823.47;;;22.49;36.38
84134;BME280;74235;48.688;9.708;2024-03-25T05:22:22;96828.72;;;22.54;36.50
84134;BME280;74235;48.688;9.708;2024-03-25T05:24:49;96825.72;;;22.56;37.18
84134;BME280;74235;48.688;9.708;2024-03-25T05:27:16;96830.31;;;22.55;35.76
84134;BME280;74235;48.688;9.708;2024-03-25T05:29:43;96829.53;;;22.55;35.94
84134;BME280;74235;48.688;9.708;2024-03-25T05:32:10;96829.03;;;22.53;37.41
84134;BME280;74235;48.688;9.708;2024-03-25T05:34:37;96829.84;;;22.53;36.09
84134;BME280;74235;48.688;9.708;2024-03-25T05:37:05;96824.13;;;22.55;36.14
84134;BME280;74235;48.688;9.708;2024-03-25T05:39:31;96826.34;;;22.53;37.34
84134;BME280;74235;48.688;9.708;2024-03-25T05:41:58;96829.34;;;22.51;36.70
84134;BME280;74235;48.688;9.708;2024-03-25T05:44:25;96836.69;;;22.51;36.97
84134;BME280;74235;48.688;9.708;2024-03-25T05:46:51;96837.44;;;22.43;36.86
84134;BME280;74235;48.688;9.708;2024-03-25T05:49:18;96831.66;;;22.36;37.31
84134;BME280;74235;48.688;9.708;2024-03-25T05:51:44;96834.72;;;22.43;36.26
84134;BME280;74235;48.688;9.708;2024-03-25T05:54:12;96832.09;;;22.60;36.58
84134;BME280;74235;48.688;9.708;2024-03-25T05:56:39;96836.72;;;22.68;36.44
84134;BME280;74235;48.688;9.708;2024-03-25T05:59:05;96844.72;;;22.73;36.92
84134;BME280;74235;48.688;9.708;2024-03-25T06:01:32;96843.75;;;22.77;35.82
84134;BME280;74235;48.688;9.708;2024-03-25T06:04:00;96832.94;;;22.77;35.50
84134;BME280;74235;48.688;9.708;2024-03-25T06:06:26;96839.78;;;22.75;36.31
84134;BME280;74235;48.688;9.708;2024-03-25T06:08:53;96835.31;;;22.79;35.45
84134;BME280;74235;48.688;9.708;2024-03-25T06:11:21;96842.38;;;22.80;36.75
84134;BME280;74235;48.688;9.708;2024-03-25T06:13:49;96834.88;;;22.77;36.69
84134;BME280;74235;48.688;9.708;2024-03-25T06:16:16;96839.00;;;22.74;36.03
84134;BME280;74235;48.688;9.708;2024-03-25T06:18:42;96830.56;;;22.76;36.61
84134;BME280;74235;48.688;9.708;2024-03-25T06:21:09;96829.44;;;22.77;35.48
84134;BME280;74235;48.688;9.708;2024-03-25T06:23:35;96825.78;;;22.73;35.62
84134;BME280;74235;48.688;9.708;2024-03-25T06:26:02;96830.06;;;22.74;35.58
84134;BME280;74235;48.688;9.708;2024-03-25T06:28:30;96832.78;;;22.74;36.71
84134;BME280;74235;48.688;9.708;2024-03-25T06:30:57;96829.56;;;22.72;35.90
84134;BME280;74235;48.688;9.708;2024-03-25T06:33:42;96835.34;;;22.70;36.32
84134;BME280;74235;48.688;9.708;2024-03-25T06:36:27;96836.88;;;22.63;36.81
84134;BME280;74235;48.688;9.708;2024-03-25T06:38:55;96834.94;;;22.55;37.07
84134;BME280;74235;48.688;9.708;2024-03-25T06:41:21;96838.31;;;22.60;35.86
84134;BME280;74235;48.688;9.708;2024-03-25T06:43:49;96836.94;;;22.88;36.64
84134;BME280;74235;48.688;9.708;2024-03-25T06:46:16;96839.56;;;23.19;34.86
84134;BME280;74235;48.688;9.708;2024-03-25T06:48:42;96836.88;;;23.53;35.57
84134;BME280;74235;48.688;9.708;2024-03-25T06:51:09;96830.16;;;23.85;34.36
84134;BME280;74235;48.688;9.708;2024-03-25T06:53:35;96835.72;;;24.05;34.15
84134;BME280;74235;48.688;9.708;2024-03-25T06:56:03;96832.69;;;24.07;33.77
84134;BME280;74235;48.688;9.708;2024-03-25T06:58:30;96836.72;;;24.01;33.78
84134;BME280;74235;48.688;9.708;2024-03-25T07:01:04;96843.09;;;23.96;33.83
84134;BME280;74235;48.688;9.708;2024-03-25T07:03:31;96846.75;;;24.00;34.98
84134;BME280;74235;48.688;9.708;2024-03-25T07:05:57;96841.47;;;24.12;36.42
84134;BME280;74235;48.688;9.708;2024-03-25T07:08:27;96848.09;;;24.40;35.48
84134;BME280;74235;48.688;9.708;2024-03-25T07:10:54;96847.44;;;24.43;35.22
84134;BME280;74235;48.688;9.708;2024-03-25T07:13:20;96845.38;;;24.40;34.95
84134;BME280;74235;48.688;9.708;2024-03-25T07:15:49;96843.94;;;24.34;35.90
84134;BME280;74235;48.688;9.708;2024-03-25T07:18:17;96846.22;;;24.32;36.30
84134;BME280;74235;48.688;9.708;2024-03-25T07:20:44;96853.53;;;24.40;35.85
84134;BME280;74235;48.688;9.708;2024-03-25T07:23:11;96857.94;;;24.53;34.78
84134;BME280;74235;48.688;9.708;2024-03-25T07:25:38;96854.56;;;24.65;35.72
84134;BME280;74235;48.688;9.708;2024-03-25T07:28:04;96866.56;;;24.55;35.54
84134;BME280;74235;48.688;9.708;2024-03-25T07:30:31;96862.09;;;24.51;35.53
84134;BME280;74235;48.688;9.708;2024-03-25T07:32:58;96861.78;;;24.52;35.13
84134;BME280;74235;48.688;9.708;2024-03-25T07:35:28;96870.25;;;24.51;35.57
84134;BME280;74235;48.688;9.708;2024-03-25T07:37:54;96854.38;;;24.61;34.93
84134;BME280;74235;48.688;9.708;2024-03-25T07:40:22;96854.06;;;24.71;34.10
84134;BME280;74235;48.688;9.708;2024-03-25T07:42:48;96855.50;;;24.60;34.13
84134;BME280;74235;48.688;9.708;2024-03-25T07:45:15;96861.78;;;24.52;34.38
84134;BME280;74235;48.688;9.708;2024-03-25T07:47:42;96858.31;;;24.43;35.52
84134;BME280;74235;48.688;9.708;2024-03-25T07:50:09;96855.63;;;24.35;35.50
84134;BME280;74235;48.688;9.708;2024-03-25T07:52:37;96857.31;;;24.48;35.53
84134;BME280;74235;48.688;9.708;2024-03-25T07:55:07;96861.63;;;24.49;36.36
84134;BME280;74235;48.688;9.708;2024-03-25T07:57:34;96850.09;;;24.52;34.76
84134;BME280;74235;48.688;9.708;2024-03-25T08:00:00;96852.66;;;24.57;35.07
84134;BME280;74235;48.688;9.708;2024-03-25T08:02:27;96854.59;;;24.48;35.69
84134;BME280;74235;48.688;9.708;2024-03-25T08:04:54;96850.63;;;24.45;36.04
84134;BME280;74235;48.688;9.708;2024-03-25T08:07:20;96862.59;;;24.53;36.30
84134;BME280;74235;48.688;9.708;2024-03-25T08:09:48;96861.25;;;24.59;35.77
84134;BME280;74235;48.688;9.708;2024-03-25T08:12:15;96859.06;;;24.52;35.37
84134;BME280;74235;48.688;9.708;2024-03-25T08:14:41;96853.50;;;24.49;35.58
84134;BME280;74235;48.688;9.708;2024-03-25T08:17:09;96851.41;;;24.46;36.12
84134;BME280;74235;48.688;9.708;2024-03-25T08:19:36;96848.31;;;24.64;35.68
84134;BME280;74235;48.688;9.708;2024-03-25T08:22:03;96848.66;;;24.63;35.78
84134;BME280;74235;48.688;9.708;2024-03-25T08:24:30;96838.91;;;24.62;35.42
84134;BME280;74235;48.688;9.708;2024-03-25T08:26:58;96840.66;;;24.58;35.22
84134;BME280;74235;48.688;9.708;2024-03-25T08:29:25;96844.66;;;24.52;35.10
84134;BME280;74235;48.688;9.708;2024-03-25T08:31:51;96838.28;;;24.56;35.16
84134;BME280;74235;48.688;9.708;2024-03-25T08:34:18;96835.38;;;24.61;35.75
84134;BME280;74235;48.688;9.708;2024-03-25T08:36:45;96834.91;;;24.59;36.73
84134;BME280;74235;48.688;9.708;2024-03-25T08:39:12;96831.16;;;24.43;36.26
84134;BME280;74235;48.688;9.708;2024-03-25T08:41:39;96834.97;;;24.42;36.32
84134;BME280;74235;48.688;9.708;2024-03-25T08:44:07;96827.97;;;24.41;36.42
84134;BME280;74235;48.688;9.708;2024-03-25T08:46:33;96835.25;;;24.49;35.05
84134;BME280;74235;48.688;9.708;2024-03-25T08:49:01;96828.53;;;24.55;34.91
84134;BME280;74235;48.688;9.708;2024-03-25T08:51:28;96816.06;;;24.54;35.18
84134;BME280;74235;48.688;9.708;2024-03-25T08:53:55;96820.44;;;24.47;34.54
84134;BME280;74235;48.688;9.708;2024-03-25T08:56:22;96806.88;;;24.38;34.83
84134;BME280;74235;48.688;9.708;2024-03-25T08:58:48;96808.22;;;24.32;35.05
84134;BME280;74235;48.688;9.708;2024-03-25T09:01:16;96800.50;;;24.34;34.53
84134;BME280;74235;48.688;9.708;2024-03-25T09:03:43;96792.66;;;24.41;34.13
84134;BME280;74235;48.688;9.708;2024-03-25T09:06:11;96792.47;;;24.46;34.15
84134;BME280;74235;48.688;9.708;2024-03-25T09:08:37;96788.66;;;24.47;33.41
84134;BME280;74235;48.688;9.708;2024-03-25T09:11:24;96794.25;;;24.42;34.55
84134;BME280;74235;48.688;9.708;2024-03-25T09:13:51;96792.84;;;24.36;34.29
84134;BME280;74235;48.688;9.708;2024-03-25T09:16:20;96796.88;;;24.30;34.61
84134;BME280;74235;48.688;9.708;2024-03-25T09:18:46;96783.00;;;24.23;33.98
84134;BME280;74235;48.688;9.708;2024-03-25T09:21:14;96787.13;;;24.29;34.39
84134;BME280;74235;48.688;9.708;2024-03-25T09:23:42;96780.69;;;24.42;33.88
84134;BME280;74235;48.688;9.708;2024-03-25T09:26:09;96781.59;;;24.46;34.45
84134;BME280;74235;48.688;9.708;2024-03-25T09:28:37;96775.13;;;24.39;34.12
84134;BME280;74235;48.688;9.708;2024-03-25T09:31:03;96778.50;;;24.27;33.88
84134;BME280;74235;48.688;9.708;2024-03-25T09:33:33;96783.94;;;24.27;34.11
84134;BME280;74235;48.688;9.708;2024-03-25T09:36:00;96779.81;;;24.21;34.15
84134;BME280;74235;48.688;9.708;2024-03-25T09:38:27;96779.03;;;24.21;35.11
84134;BME280;74235;48.688;9.708;2024-03-25T09:40:55;96782.13;;;24.40;35.18
84134;BME280;74235;48.688;9.708;2024-03-25T09:43:26;96772.72;;;24.37;34.48
84134;BME280;74235;48.688;9.708;2024-03-25T09:45:54;96777.97;;;24.42;34.33
84134;BME280;74235;48.688;9.708;2024-03-25T09:48:22;96773.84;;;24.36;33.93
84134;BME280;74235;48.688;9.708;2024-03-25T09:50:52;96765.84;;;24.40;34.18
84134;BME280;74235;48.688;9.708;2024-03-25T09:53:19;96768.59;;;24.31;34.46
84134;BME280;74235;48.688;9.708;2024-03-25T09:55:46;96763.34;;;24.26;34.88
84134;BME280;74235;48.688;9.708;2024-03-25T09:58:14;96752.69;;;24.21;35.60
84134;BME280;74235;48.688;9.708;2024-03-25T10:00:42;96749.84;;;24.09;35.58
84134;BME280;74235;48.688;9.708;2024-03-25T10:03:09;96748.25;;;24.08;36.92
84134;BME280;74235;48.688;9.708;2024-03-25T10:05:37;96743.13;;;24.15;36.10
84134;BME280;74235;48.688;9.708;2024-03-25T10:08:06;96734.03;;;24.20;35.48
84134;BME280;74235;48.688;9.708;2024-03-25T10:10:33;96732.59;;;24.14;35.04
84134;BME280;74235;48.688;9.708;2024-03-25T10:13:00;96731.78;;;24.13;35.42
84134;BME280;74235;48.688;9.708;2024-03-25T10:15:27;96725.44;;;24.09;35.42
84134;BME280;74235;48.688;9.708;2024-03-25T10:17:53;96721.00;;;24.05;34.27
84134;BME280;74235;48.688;9.708;2024-03-25T10:20:20;96722.94;;;23.96;35.15
84134;BME280;74235;48.688;9.708;2024-03-25T10:22:47;96713.03;;;23.91;36.11
84134;BME280;74235;48.688;9.708;2024-03-25T10:25:24;96709.38;;;23.87;34.84
84134;BME280;74235;48.688;9.708;2024-03-25T10:27:56;96699.66;;;23.78;35.66
84134;BME280;74235;48.688;9.708;2024-03-25T10:30:23;96705.59;;;23.71;35.38
84134;BME280;74235;48.688;9.708;2024-03-25T10:32:59;96697.94;;;23.73;35.38
84134;BME280;74235;48.688;9.708;2024-03-25T10:35:28;96696.28;;;23.89;35.38
84134;BME280;74235;48.688;9.708;2024-03-25T10:37:58;96690.38;;;23.96;35.18
84134;BME280;74235;48.688;9.708;2024-03-25T10:40:28;96681.59;;;23.99;34.34
84134;BME280;74235;48.688;9.708;2024-03-25T10:43:01;96672.00;;;24.01;35.55
84134;BME280;74235;48.688;9.708;2024-03-25T10:45:29;96663.88;;;24.01;34.97
84134;BME280;74235;48.688;9.708;2024-03-25T10:48:02;96661.81;;;23.98;34.38
84134;BME280;74235;48.688;9.708;2024-03-25T10:50:30;96656.66;;;24.05;35.03
84134;BME280;74235;48.688;9.708;2024-03-25T10:52:57;96656.84;;;24.00;34.77
84134;BME280;74235;48.688;9.708;2024-03-25T10:55:24;96654.16;;;24.00;34.94
84134;BME280;74235;48.688;9.708;2024-03-25T10:57:55;96647.91;;;24.00;35.41
84134;BME280;74235;48.688;9.708;2024-03-25T11:00:23;96640.78;;;23.95;35.18
84134;BME280;74235;48.688;9.708;2024-03-25T11:02:50;96649.38;;;23.97;35.19
84134;BME280;74235;48.688;9.708;2024-03-25T11:05:17;96646.84;;;23.92;35.85
84134;BME280;74235;48.688;9.708;2024-03-25T11:07:44;96648.13;;;23.86;34.77
84134;BME280;74235;48.688;9.708;2024-03-25T11:10:12;96647.66;;;23.84;34.91
84134;BME280;74235;48.688;9.708;2024-03-25T11:12:41;96644.13;;;23.84;35.36
84134;BME280;74235;48.688;9.708;2024-03-25T11:15:35;96650.38;;;23.84;35.39
84134;BME280;74235;48.688;9.708;2024-03-25T11:18:23;96653.25;;;23.79;33.21
84134;BME280;74235;48.688;9.708;2024-03-25T11:21:12;96641.16;;;23.68;31.33
84134;BME280;74235;48.688;9.708;2024-03-25T11:23:41;96638.94;;;23.70;32.03
84134;BME280;74235;48.688;9.708;2024-03-25T11:26:17;96641.16;;;23.68;31.39
84134;BME280;74235;48.688;9.708;2024-03-25T11:28:45;96623.84;;;23.61;31.16
84134;BME280;74235;48.688;9.708;2024-03-25T11:31:13;96633.25;;;23.54;30.50
84134;BME280;74235;48.688;9.708;2024-03-25T11:33:40;96621.34;;;23.47;31.29
84134;BME280;74235;48.688;9.708;2024-03-25T11:36:07;96617.34;;;23.44;30.25
84134;BME280;74235;48.688;9.708;2024-03-25T11:38:34;96608.84;;;23.54;29.76
84134;BME280;74235;48.688;9.708;2024-03-25T11:41:01;96606.13;;;23.63;29.97
84134;BME280;74235;48.688;9.708;2024-03-25T11:43:27;96601.34;;;23.60;29.57
84134;BME280;74235;48.688;9.708;2024-03-25T11:45:54;96596.41;;;23.62;28.98
84134;BME280;74235;48.688;9.708;2024-03-25T11:48:22;96595.91;;;23.60;28.70
84134;BME280;74235;48.688;9.708;2024-03-25T11:50:49;96591.00;;;23.53;29.77
84134;BME280;74235;48.688;9.708;2024-03-25T11:53:19;96589.91;;;23.46;30.10
84134;BME280;74235;48.688;9.708;2024-03-25T11:55:46;96578.41;;;23.49;29.13
84134;BME280;74235;48.688;9.708;2024-03-25T11:58:13;96568.91;;;23.43;28.34
84134;BME280;74235;48.688;9.708;2024-03-25T12:00:44;96568.72;;;23.48;28.50
84134;BME280;74235;48.688;9.708;2024-03-25T12:03:13;96562.47;;;23.47;28.47
84134;BME280;74235;48.688;9.708;2024-03-25T12:05:43;96559.16;;;23.42;29.74
84134;BME280;74235;48.688;9.708;2024-03-25T12:08:10;96553.75;;;23.42;28.45
84134;BME280;74235;48.688;9.708;2024-03-25T12:10:38;96553.59;;;23.38;28.78
84134;BME280;74235;48.688;9.708;2024-03-25T12:13:24;96551.88;;;23.34;28.23
84134;BME280;74235;48.688;9.708;2024-03-25T12:15:51;96536.72;;;23.33;27.57
84134;BME280;74235;48.688;9.708;2024-03-25T12:18:19;96530.84;;;23.31;27.43
84134;BME280;74235;48.688;9.708;2024-03-25T12:20:47;96528.31;;;23.26;28.93
84134;BME280;74235;48.688;9.708;2024-03-25T12:23:14;96524.03;;;23.25;28.35
84134;BME280;74235;48.688;9.708;2024-03-25T12:25:41;96509.66;;;23.16;29.22
84134;BME280;74235;48.688;9.708;2024-03-25T12:28:14;96510.16;;;23.18;29.33
84134;BME280;74235;48.688;9.708;2024-03-25T12:30:49;96498.38;;;23.22;29.39
84134;BME280;74235;48.688;9.708;2024-03-25T12:33:16;96500.78;;;23.44;29.81
84134;BME280;74235;48.688;9.708;2024-03-25T12:35:45;96488.81;;;23.54;28.62
84134;BME280;74235;48.688;9.708;2024-03-25T12:38:24;96481.78;;;23.53;27.92
84134;BME280;74235;48.688;9.708;2024-03-25T12:40:51;96469.09;;;23.66;28.40
84134;BME280;74235;48.688;9.708;2024-03-25T12:43:17;96466.88;;;23.68;28.79
84134;BME280;74235;48.688;9.708;2024-03-25T12:45:44;96459.72;;;23.63;28.39
84134;BME280;74235;48.688;9.708;2024-03-25T12:48:11;96453.63;;;23.66;28.48
84134;BME280;74235;48.688;9.708;2024-03-25T12:50:38;96461.28;;;23.64;28.43
84134;BME280;74235;48.688;9.708;2024-03-25T12:53:05;96453.38;;;23.59;28.49
84134;BME280;74235;48.688;9.708;2024-03-25T12:55:34;96461.28;;;23.43;26.66
84134;BME280;74235;48.688;9.708;2024-03-25T12:58:00;96459.53;;;23.39;27.49
84134;BME280;74235;48.688;9.708;2024-03-25T13:00:27;96453.66;;;23.37;27.43
84134;BME280;74235;48.688;9.708;2024-03-25T13:02:54;96440.00;;;23.33;27.00